createdAt,value
2019-04-05T00:00:55.406Z,90.77
2019-04-05T00:03:25.707Z,90.49
2019-04-05T00:05:55.967Z,90.81
2019-04-05T00:08:26.168Z,90.70
2019-04-05T00:10:56.510Z,90.24
2019-04-05T00:13:27.839Z,90.29
2019-04-05T00:15:58.017Z,90.81
2019-04-05T00:18:28.241Z,90.70
2019-04-05T00:20:58.510Z,90.48
2019-04-05T00:23:30.747Z,90.21
2019-04-05T00:26:01.090Z,90.03
2019-04-05T00:28:31.391Z,90.31
2019-04-05T00:31:01.834Z,90.29
2019-04-05T00:33:32.081Z,90.62
2019-04-05T00:36:02.382Z,90.43
2019-04-05T00:38:32.579Z,90.73
2019-04-05T00:41:03.083Z,91.42
2019-04-05T00:43:33.273Z,92.07
2019-04-05T00:46:03.623Z,92.55
2019-04-05T00:48:33.999Z,92.77
2019-04-05T00:51:04.253Z,92.68
2019-04-05T00:53:34.526Z,92.69
2019-04-05T00:56:04.880Z,92.50
2019-04-05T00:58:35.231Z,92.75
2019-04-05T01:03:16.744Z,93.26
2019-04-05T01:05:47.210Z,93.15
2019-04-05T01:08:17.697Z,92.86
2019-04-05T01:10:47.988Z,92.52
2019-04-05T01:13:18.336Z,92.63
2019-04-05T01:15:48.549Z,92.83
2019-04-05T01:18:18.995Z,92.38
2019-04-05T01:20:53.907Z,92.27
2019-04-05T01:23:24.840Z,92.27
2019-04-05T01:25:58.858Z,91.91
2019-04-05T01:28:29.308Z,92.12
2019-04-05T01:30:59.813Z,91.99
2019-04-05T01:33:30.113Z,92.46
2019-04-05T01:36:00.552Z,92.35
2019-04-05T01:38:31.004Z,92.42
2019-04-05T01:41:02.141Z,92.48
2019-04-05T01:43:32.504Z,92.13
2019-04-05T01:46:03.095Z,92.22
2019-04-05T01:48:33.324Z,92.63
2019-04-05T01:51:03.834Z,92.69
2019-04-05T01:53:34.027Z,93.10
2019-04-05T01:56:04.779Z,93.26
2019-04-05T01:58:34.912Z,93.02
2019-04-05T02:01:05.337Z,93.56
2019-04-05T02:03:35.588Z,93.60
2019-04-05T02:06:05.921Z,93.13
2019-04-05T02:08:36.541Z,92.83
2019-04-05T02:11:07.083Z,93.40
2019-04-05T02:13:37.477Z,93.60
2019-04-05T02:16:07.803Z,93.67
2019-04-05T02:18:38.206Z,93.28
2019-04-05T02:21:08.746Z,93.30
2019-04-05T02:23:39.069Z,93.73
2019-04-05T02:26:09.445Z,93.65
2019-04-05T02:28:39.788Z,94.22
2019-04-05T02:31:10.176Z,93.47
2019-04-05T02:33:40.638Z,93.19
2019-04-05T02:36:11.117Z,93.47
2019-04-05T02:38:41.457Z,93.57
2019-04-05T02:41:13.113Z,93.10
2019-04-05T02:43:44.744Z,93.52
2019-04-05T02:46:23.931Z,93.57
2019-04-05T02:48:50.296Z,93.64
2019-04-05T02:51:25.650Z,94.22
2019-04-05T02:53:58.959Z,94.72
2019-04-05T02:56:31.386Z,94.11
2019-04-05T02:59:03.424Z,94.60
2019-04-05T03:03:16.403Z,94.18
2019-04-05T03:05:47.670Z,94.11
2019-04-05T03:08:19.523Z,93.95
2019-04-05T03:11:09.219Z,94.47
2019-04-05T03:13:47.222Z,94.26
2019-04-05T03:16:39.273Z,94.12
2019-04-05T03:19:24.031Z,93.99
2019-04-05T03:22:02.644Z,93.92
2019-04-05T03:24:37.198Z,94.31
2019-04-05T03:27:19.246Z,93.93
2019-04-05T03:29:50.373Z,94.08
2019-04-05T03:32:21.476Z,93.58
2019-04-05T03:34:53.797Z,93.03
2019-04-05T03:37:24.850Z,92.58
2019-04-05T03:39:56.796Z,92.73
2019-04-05T03:42:27.370Z,93.40
2019-04-05T03:44:57.778Z,92.91
2019-04-05T03:47:28.255Z,93.39
2019-04-05T03:49:59.566Z,92.97
2019-04-05T03:52:29.907Z,93.25
2019-04-05T03:55:00.288Z,93.28
2019-04-05T03:57:30.950Z,93.31
2019-04-05T04:00:01.563Z,92.98
2019-04-05T04:02:31.908Z,93.16
2019-04-05T04:05:02.333Z,93.47
2019-04-05T04:07:32.776Z,93.33
2019-04-05T04:10:03.126Z,93.37
2019-04-05T04:12:33.673Z,93.78
2019-04-05T04:15:14.770Z,93.54
2019-04-05T04:17:47.234Z,93.69
2019-04-05T04:20:39.560Z,93.65
2019-04-05T04:23:11.444Z,93.60
2019-04-05T04:25:43.039Z,93.70
2019-04-05T04:28:13.962Z,94.17
2019-04-05T04:30:45.694Z,94.38
2019-04-05T04:33:16.347Z,94.33
2019-04-05T04:35:47.146Z,93.80
2019-04-05T04:38:18.332Z,94.35
2019-04-05T04:40:49.103Z,93.60
2019-04-05T04:43:20.759Z,93.79
2019-04-05T04:45:51.102Z,93.12
2019-04-05T04:48:21.491Z,93.47
2019-04-05T04:50:52.249Z,93.32
2019-04-05T04:53:23.056Z,93.14
2019-04-05T04:55:53.714Z,93.27
2019-04-05T04:58:24.396Z,92.99
2019-04-05T05:03:14.399Z,93.54
2019-04-05T05:05:44.963Z,93.47
2019-04-05T05:08:15.725Z,93.29
2019-04-05T05:10:46.539Z,93.76
2019-04-05T05:13:17.379Z,93.82
2019-04-05T05:15:48.393Z,93.85
2019-04-05T05:18:19.238Z,94.22
2019-04-05T05:20:50.131Z,93.62
2019-04-05T05:23:20.805Z,93.27
2019-04-05T05:25:51.922Z,93.17
2019-04-05T05:28:22.471Z,93.12
2019-04-05T05:30:52.856Z,93.31
2019-04-05T05:33:23.531Z,93.38
2019-04-05T05:35:54.255Z,93.84
2019-04-05T05:38:24.801Z,93.80
2019-04-05T05:40:55.181Z,93.30
2019-04-05T05:43:25.605Z,93.45
2019-04-05T05:45:55.933Z,93.58
2019-04-05T05:48:26.694Z,93.06
2019-04-05T05:50:57.323Z,93.16
2019-04-05T05:53:27.679Z,93.06
2019-04-05T05:55:57.801Z,92.87
2019-04-05T05:58:28.121Z,92.75
2019-04-05T06:00:58.466Z,92.26
2019-04-05T06:03:28.853Z,92.47
2019-04-05T06:06:04.676Z,92.35
2019-04-05T06:08:30.944Z,92.04
2019-04-05T06:11:01.209Z,91.45
2019-04-05T06:13:31.504Z,91.52
2019-04-05T06:16:01.871Z,91.57
2019-04-05T06:18:32.011Z,91.74
2019-04-05T06:21:03.567Z,91.94
2019-04-05T06:23:34.387Z,90.54
2019-04-05T06:26:04.892Z,90.40
2019-04-05T06:28:35.121Z,89.83
2019-04-05T06:31:05.358Z,89.42
2019-04-05T06:33:36.018Z,90.42
2019-04-05T06:36:06.486Z,89.08
2019-04-05T06:38:36.616Z,88.55
2019-04-05T06:41:06.924Z,88.82
2019-04-05T06:43:37.294Z,89.47
2019-04-05T06:46:07.767Z,89.45
2019-04-05T06:48:38.044Z,92.10
2019-04-05T06:51:08.317Z,87.36
2019-04-05T06:53:38.480Z,88.00
2019-04-05T06:56:09.019Z,88.86
2019-04-05T06:58:39.239Z,87.91
2019-04-05T07:03:14.278Z,87.96
2019-04-05T07:05:45.104Z,87.01
2019-04-05T07:08:18.174Z,88.48
2019-04-05T07:10:47.499Z,87.47
2019-04-05T07:13:17.881Z,88.38
2019-04-05T07:15:48.061Z,87.84
2019-04-05T07:18:31.596Z,87.33
2019-04-05T07:20:50.424Z,87.27
2019-04-05T07:23:20.560Z,87.60
2019-04-05T07:25:50.848Z,87.31
2019-04-05T07:28:21.147Z,87.67
2019-04-05T07:30:51.496Z,87.47
2019-04-05T07:33:21.641Z,87.35
2019-04-05T07:35:51.909Z,87.53
2019-04-05T07:38:22.782Z,87.74
2019-04-05T07:40:52.994Z,87.71
2019-04-05T07:43:23.240Z,86.81
2019-04-05T07:45:53.603Z,86.57
2019-04-05T07:48:23.708Z,85.23
2019-04-05T07:50:53.983Z,86.89
2019-04-05T07:53:24.174Z,86.52
2019-04-05T07:55:54.527Z,84.30
2019-04-05T07:58:24.999Z,84.08
2019-04-05T08:00:57.097Z,85.39
2019-04-05T08:03:27.840Z,85.41
2019-04-05T08:05:58.309Z,84.99
2019-04-05T08:08:57.333Z,86.01
2019-04-05T08:11:29.037Z,86.04
2019-04-05T08:14:02.075Z,86.51
2019-04-05T08:16:32.401Z,86.19
2019-04-05T08:19:02.766Z,85.86
2019-04-05T08:21:32.971Z,84.60
2019-04-05T08:24:03.363Z,84.55
2019-04-05T08:26:33.713Z,84.81
2019-04-05T08:29:04.183Z,84.06
2019-04-05T08:31:34.393Z,84.73
2019-04-05T08:34:04.928Z,84.68
2019-04-05T08:36:35.059Z,84.08
2019-04-05T08:39:07.777Z,84.30
2019-04-05T08:41:38.200Z,85.47
2019-04-05T08:44:08.634Z,85.40
2019-04-05T08:46:39.048Z,84.60
2019-04-05T08:49:11.551Z,84.41
2019-04-05T08:51:42.506Z,84.10
2019-04-05T08:54:12.920Z,82.95
2019-04-05T08:56:43.241Z,81.45
2019-04-05T08:59:13.610Z,81.25
2019-04-05T09:03:16.902Z,80.72
2019-04-05T09:05:47.194Z,79.97
2019-04-05T09:08:17.532Z,78.81
2019-04-05T09:10:47.869Z,79.80
2019-04-05T09:13:17.999Z,79.25
2019-04-05T09:15:48.403Z,79.18
2019-04-05T09:18:18.754Z,78.36
2019-04-05T09:20:48.961Z,78.79
2019-04-05T09:23:19.164Z,77.06
2019-04-05T09:25:49.518Z,78.12
2019-04-05T09:28:19.700Z,77.41
2019-04-05T09:30:51.879Z,77.74
2019-04-05T09:33:21.833Z,75.58
2019-04-05T09:35:52.032Z,73.62
2019-04-05T09:38:24.396Z,74.26
2019-04-05T09:40:56.196Z,74.04
2019-04-05T09:43:26.883Z,72.72
2019-04-05T09:45:59.385Z,74.09
2019-04-05T09:48:29.724Z,73.97
2019-04-05T09:50:59.955Z,73.33
2019-04-05T09:53:30.345Z,70.75
2019-04-05T09:56:00.564Z,70.14
2019-04-05T09:58:30.915Z,72.33
2019-04-05T10:01:01.250Z,69.68
2019-04-05T10:03:31.451Z,69.43
2019-04-05T10:06:02.160Z,69.39
2019-04-05T10:08:32.556Z,68.25
2019-04-05T10:11:02.914Z,68.79
2019-04-05T10:13:33.043Z,70.46
2019-04-05T10:16:03.319Z,68.81
2019-04-05T10:18:34.036Z,69.02
2019-04-05T10:21:06.208Z,69.10
2019-04-05T10:23:36.579Z,65.82
2019-04-05T10:26:06.927Z,65.53
2019-04-05T10:28:39.260Z,64.92
2019-04-05T10:31:09.551Z,66.03
2019-04-05T10:33:39.733Z,67.86
2019-04-05T10:36:09.921Z,69.49
2019-04-05T10:38:40.066Z,68.98
2019-04-05T10:41:10.334Z,68.76
2019-04-05T10:43:40.617Z,69.46
2019-04-05T10:46:11.295Z,69.40
2019-04-05T10:48:41.643Z,69.78
2019-04-05T10:51:11.789Z,67.73
2019-04-05T10:53:41.903Z,67.54
2019-04-05T10:56:12.223Z,69.13
2019-04-05T10:58:42.434Z,68.98
2019-04-05T11:03:14.043Z,68.30
2019-04-05T11:05:44.317Z,68.13
2019-04-05T11:08:14.465Z,67.47
2019-04-05T11:10:44.649Z,67.13
2019-04-05T11:13:15.032Z,67.56
2019-04-05T11:15:45.229Z,68.26
2019-04-05T11:18:15.507Z,69.42
2019-04-05T11:20:48.974Z,69.30
2019-04-05T11:23:20.932Z,70.50
2019-04-05T11:25:49.698Z,69.25
2019-04-05T11:28:20.023Z,68.17
2019-04-05T11:30:50.484Z,69.20
2019-04-05T11:33:20.880Z,68.21
2019-04-05T11:35:51.626Z,67.71
2019-04-05T11:38:24.310Z,69.21
2019-04-05T11:40:55.573Z,71.07
2019-04-05T11:43:31.192Z,72.18
2019-04-05T11:46:00.926Z,72.68
2019-04-05T11:48:34.358Z,73.27
2019-04-05T11:51:04.762Z,73.52
2019-04-05T11:53:34.873Z,74.05
2019-04-05T11:56:14.503Z,72.22
2019-04-05T11:58:37.077Z,72.40
2019-04-05T12:01:23.657Z,72.52
2019-04-05T12:03:53.961Z,72.17
2019-04-05T12:06:24.276Z,71.04
2019-04-05T12:08:54.571Z,72.26
2019-04-05T12:11:24.821Z,71.40
2019-04-05T12:13:55.041Z,71.21
2019-04-05T12:16:25.228Z,71.25
2019-04-05T12:18:55.479Z,69.72
2019-04-05T12:21:25.732Z,70.97
2019-04-05T12:23:55.936Z,69.03
2019-04-05T12:26:26.156Z,68.47
2019-04-05T12:28:56.411Z,69.85
2019-04-05T12:31:27.456Z,69.64
2019-04-05T12:33:57.672Z,70.04
2019-04-05T12:36:27.852Z,72.57
2019-04-05T12:38:58.063Z,72.77
2019-04-05T12:41:28.267Z,72.79
2019-04-05T12:43:58.485Z,73.92
2019-04-05T12:46:28.751Z,73.21
2019-04-05T12:48:59.086Z,72.29
2019-04-05T12:51:29.383Z,73.80
2019-04-05T12:53:59.491Z,74.23
2019-04-05T12:56:29.776Z,73.97
2019-04-05T12:59:00.192Z,74.32
2019-04-05T13:03:13.950Z,74.83
2019-04-05T13:05:44.099Z,74.94
2019-04-05T13:08:15.833Z,74.64
2019-04-05T13:10:46.086Z,74.92
2019-04-05T13:13:16.400Z,73.41
2019-04-05T13:15:46.671Z,72.87
2019-04-05T13:18:16.929Z,72.68
2019-04-05T13:20:47.245Z,73.47
2019-04-05T13:23:17.619Z,73.68
2019-04-05T13:25:48.106Z,74.26
2019-04-05T13:28:18.943Z,76.62
2019-04-05T13:30:49.875Z,77.50
2019-04-05T13:33:21.621Z,77.50
2019-04-05T13:35:52.272Z,77.24
2019-04-05T13:38:22.594Z,78.44
2019-04-05T13:40:52.953Z,77.93
2019-04-05T13:43:23.182Z,78.85
2019-04-05T13:45:53.546Z,78.76
2019-04-05T13:48:23.768Z,78.68
2019-04-05T13:50:53.885Z,78.22
2019-04-05T13:53:24.036Z,79.04
2019-04-05T13:55:54.347Z,78.39
2019-04-05T13:58:24.585Z,79.71
2019-04-05T14:00:54.789Z,79.09
2019-04-05T14:03:25.140Z,79.59
2019-04-05T14:05:55.525Z,80.87
2019-04-05T14:08:25.915Z,79.40
2019-04-05T14:10:56.103Z,80.64
2019-04-05T14:13:26.234Z,80.94
2019-04-05T14:15:56.577Z,80.34
2019-04-05T14:18:26.773Z,78.37
2019-04-05T14:20:57.038Z,77.68
2019-04-05T14:23:27.282Z,77.93
2019-04-05T14:25:59.968Z,76.91
2019-04-05T14:28:29.563Z,78.19
2019-04-05T14:31:02.261Z,78.82
2019-04-05T14:33:31.781Z,78.65
2019-04-05T14:36:01.959Z,79.24
2019-04-05T14:38:32.056Z,78.54
2019-04-05T14:41:02.264Z,78.87
2019-04-05T14:43:32.359Z,79.76
2019-04-05T14:46:03.032Z,79.26
2019-04-05T14:48:33.302Z,79.94
2019-04-05T14:51:03.586Z,79.34
2019-04-05T14:53:33.688Z,78.98
2019-04-05T14:56:04.145Z,79.24
2019-04-05T14:58:34.259Z,79.26
2019-04-05T15:03:15.952Z,79.35
2019-04-05T15:05:46.455Z,77.90
2019-04-05T15:08:20.420Z,77.54
2019-04-05T15:10:51.238Z,77.55
2019-04-05T15:13:20.994Z,78.65
2019-04-05T15:15:51.145Z,78.37
2019-04-05T15:18:24.097Z,78.31
2019-04-05T15:20:53.247Z,78.81
2019-04-05T15:23:23.382Z,79.99
2019-04-05T15:25:53.768Z,81.13
2019-04-05T15:28:24.593Z,81.31
2019-04-05T15:30:56.168Z,79.32
2019-04-05T15:33:27.859Z,79.97
2019-04-05T15:36:02.331Z,79.62
2019-04-05T15:38:31.801Z,78.68
2019-04-05T15:41:02.800Z,77.72
2019-04-05T15:43:33.009Z,78.58
2019-04-05T15:46:03.569Z,78.68
2019-04-05T15:48:33.826Z,78.12
2019-04-05T15:51:04.127Z,77.86
2019-04-05T15:53:34.487Z,76.96
2019-04-05T15:56:05.039Z,77.09
2019-04-05T15:58:35.295Z,77.22
2019-04-05T16:01:05.796Z,76.89
2019-04-05T16:03:37.047Z,76.96
2019-04-05T16:06:07.928Z,76.07
2019-04-05T16:08:39.456Z,76.15
2019-04-05T16:11:10.886Z,76.42
2019-04-05T16:13:41.227Z,77.03
2019-04-05T16:16:11.557Z,77.55
2019-04-05T16:18:42.749Z,77.65
2019-04-05T16:21:12.883Z,77.60
2019-04-05T16:23:44.701Z,77.84
2019-04-05T16:26:15.228Z,77.91
2019-04-05T16:28:46.110Z,77.99
2019-04-05T16:31:16.731Z,79.16
2019-04-05T16:33:47.817Z,80.12
2019-04-05T16:36:18.023Z,81.41
2019-04-05T16:38:49.529Z,81.61
2019-04-05T16:41:19.915Z,81.17
2019-04-05T16:43:50.082Z,81.39
2019-04-05T16:46:20.484Z,81.77
2019-04-05T16:48:50.774Z,81.46
2019-04-05T16:51:21.190Z,81.47
2019-04-05T16:54:01.043Z,81.06
2019-04-05T16:56:31.717Z,81.58
2019-04-05T16:59:02.043Z,81.79
2019-04-05T17:03:13.708Z,81.86
2019-04-05T17:05:44.026Z,81.77
2019-04-05T17:08:14.292Z,81.84
2019-04-05T17:10:44.496Z,81.07
2019-04-05T17:13:14.795Z,81.81
2019-04-05T17:15:47.377Z,82.09
2019-04-05T17:18:17.675Z,81.72
2019-04-05T17:20:47.798Z,81.95
2019-04-05T17:23:17.997Z,82.46
2019-04-05T17:25:48.362Z,82.35
2019-04-05T17:28:18.632Z,82.58
2019-04-05T17:30:48.855Z,81.79
2019-04-05T17:33:19.119Z,82.12
2019-04-05T17:35:49.497Z,82.42
2019-04-05T17:38:19.832Z,82.26
2019-04-05T17:40:50.007Z,81.82
2019-04-05T17:43:20.480Z,82.34
2019-04-05T17:45:50.697Z,82.57
2019-04-05T17:48:20.875Z,82.89
2019-04-05T17:50:51.184Z,82.49
2019-04-05T17:53:21.625Z,82.81
2019-04-05T17:55:52.323Z,83.11
2019-04-05T17:58:26.297Z,83.28
2019-04-05T18:00:56.685Z,82.93
2019-04-05T18:03:26.849Z,83.45
2019-04-05T18:05:57.331Z,83.64
2019-04-05T18:08:27.502Z,83.49
2019-04-05T18:10:57.753Z,83.72
2019-04-05T18:13:27.982Z,83.99
2019-04-05T18:15:58.175Z,84.17
2019-04-05T18:18:28.382Z,84.47
2019-04-05T18:20:58.600Z,84.55
2019-04-05T18:23:28.916Z,84.75
2019-04-05T18:25:59.125Z,84.35
2019-04-05T18:28:29.432Z,84.94
2019-04-05T18:30:59.847Z,84.74
2019-04-05T18:33:30.251Z,84.62
2019-04-05T18:36:00.535Z,84.61
2019-04-05T18:38:30.727Z,84.98
2019-04-05T18:41:01.104Z,84.58
2019-04-05T18:43:31.358Z,84.94
2019-04-05T18:46:01.729Z,85.26
2019-04-05T18:48:31.943Z,85.17
2019-04-05T18:51:02.069Z,85.48
2019-04-05T18:53:38.005Z,85.41
2019-04-05T18:56:04.420Z,85.57
2019-04-05T18:58:34.805Z,85.07
2019-04-05T19:03:13.825Z,85.82
2019-04-05T19:05:44.147Z,85.86
2019-04-05T19:08:14.461Z,85.85
2019-04-05T19:10:44.666Z,85.49
2019-04-05T19:13:15.532Z,85.49
2019-04-05T19:15:46.975Z,85.65
2019-04-05T19:18:17.395Z,85.49
2019-04-05T19:20:48.284Z,85.29
2019-04-05T19:23:18.675Z,85.27
2019-04-05T19:25:49.291Z,85.43
2019-04-05T19:28:19.554Z,85.40
2019-04-05T19:48:36.150Z,85.83
2019-04-05T19:51:06.652Z,85.99
2019-04-05T19:53:36.928Z,86.00
2019-04-05T19:56:07.312Z,86.48
2019-04-05T20:11:31.477Z,85.83
2019-04-05T20:14:01.863Z,86.26
2019-04-05T20:16:32.144Z,86.15
2019-04-05T20:19:02.385Z,86.34
2019-04-05T20:21:32.591Z,85.75
2019-04-05T20:24:13.491Z,86.37
2019-04-05T20:26:34.932Z,86.58
2019-04-05T20:29:05.536Z,86.46
2019-04-05T20:31:35.843Z,86.38
2019-04-05T20:34:06.226Z,86.81
2019-04-05T20:36:36.353Z,86.38
2019-04-05T20:39:08.391Z,86.78
2019-04-05T20:41:38.707Z,86.06
2019-04-05T20:44:09.003Z,86.03
2019-04-05T21:03:15.995Z,87.26
2019-04-05T21:05:46.170Z,87.77
2019-04-05T21:08:16.316Z,88.05
2019-04-05T21:10:46.513Z,87.95
2019-04-05T21:13:16.785Z,88.27
2019-04-05T21:15:46.981Z,88.05
2019-04-05T21:18:17.238Z,88.16
2019-04-05T21:20:47.876Z,88.43
2019-04-05T21:23:18.038Z,88.96
2019-04-05T21:25:48.416Z,88.94
2019-04-05T21:28:18.624Z,89.30
2019-04-05T21:30:48.774Z,89.89
2019-04-05T21:33:19.067Z,90.62
2019-04-05T21:35:49.833Z,91.16
2019-04-05T21:38:20.055Z,91.80
2019-04-05T21:40:50.265Z,91.97
2019-04-05T21:43:20.445Z,92.14
2019-04-05T21:45:50.665Z,92.57
2019-04-05T21:48:20.866Z,93.31
2019-04-05T21:50:51.109Z,93.84
2019-04-05T21:53:21.327Z,94.02
2019-04-05T21:55:51.520Z,94.44
2019-04-05T21:58:21.679Z,94.76
2019-04-05T22:00:57.376Z,94.83
2019-04-05T22:03:27.574Z,95.52
2019-04-05T22:05:57.863Z,96.41
2019-04-05T22:08:28.120Z,96.91
2019-04-05T22:10:58.350Z,96.96
2019-04-05T22:13:28.486Z,97.66
2019-04-05T22:15:58.731Z,97.67
2019-04-05T22:18:29.067Z,98.12
2019-04-05T22:20:59.437Z,98.52
2019-04-05T22:23:29.600Z,98.68
2019-04-05T22:25:59.709Z,99.14
2019-04-05T22:28:29.973Z,99.10
2019-04-05T22:31:00.185Z,99.37
2019-04-05T22:33:30.293Z,99.58
2019-04-05T22:36:00.438Z,99.66
2019-04-05T22:38:30.633Z,99.47
2019-04-05T22:41:00.941Z,99.79
2019-04-05T22:43:31.148Z,100.00
2019-04-05T22:46:01.477Z,100.00
2019-04-05T22:48:31.753Z,100.00
2019-04-05T22:51:01.948Z,100.00
2019-04-05T22:53:32.261Z,100.00
2019-04-05T22:56:02.867Z,99.84
2019-04-05T22:58:33.150Z,99.55
2019-04-05T23:03:13.424Z,100.00
2019-04-05T23:05:43.666Z,100.00
2019-04-05T23:08:13.939Z,100.00
2019-04-05T23:10:44.177Z,100.00
2019-04-05T23:13:14.540Z,99.88
2019-04-05T23:15:44.913Z,99.91
2019-04-05T23:18:15.273Z,99.83
2019-04-05T23:20:45.378Z,100.00
2019-04-05T23:23:15.559Z,100.00
2019-04-05T23:25:45.837Z,100.00
2019-04-05T23:28:16.000Z,100.00
2019-04-05T23:30:46.375Z,100.00
2019-04-05T23:33:16.574Z,100.00
2019-04-05T23:35:46.776Z,100.00
2019-04-05T23:38:17.039Z,100.00
2019-04-05T23:40:47.365Z,100.00
2019-04-05T23:43:17.578Z,100.00
2019-04-05T23:45:47.963Z,100.00
2019-04-05T23:48:18.328Z,100.00
2019-04-05T23:50:48.594Z,100.00
2019-04-05T23:53:18.742Z,100.00
2019-04-05T23:55:48.952Z,100.00
2019-04-05T23:58:19.163Z,100.00
